首页
METAR-TAF:

METAR-TAF

机场 :

比利·畢曉普多倫多市機場

多伦多 City Centre, 安大略省, 加拿大

纬度: 43-38N, 经度: 079-24W, 海拔: 77米

当前天气观测

该预报发布于37分钟前的22:00 UTC
风速15节,风向西,有时为22节阵风
温度 28°C
湿度 42%
气压 1003 hPa
能見度: 14.5公里
少量云层高于6500英尺

METAR: CYTZ 032200Z AUTO 28015G22KT 9SM FEW065 28/14 A2961 RMK SLP028 DENSITY ALT 2100FT

时间: 18:37 (22:37 UTC)

预报

该预报发布于2小时和59分钟前的19:38 UTC
预报有效从03日的 20点(UTC)到 04日的 20点(UTC)
风速10节,风向西转西北,有时为20节阵风
能見度: 10公里
散云层高于5000英尺
短暂存在
从 03日的 20点(UTC)到 03日的 24点(UTC)
能見度: 10公里
多云层高于5000英尺
小阵雨
从 04日的 0000点(UTC)
风速10节,风向西转西北
能見度: 10公里
少量云层高于8000英尺
成为
从 04日的 07点(UTC)到 04日的 09点(UTC)
风速3节,风向多变
成为
从 04日的 10点(UTC)到 04日的 12点(UTC)
风速7节,风向西南
从 04日的 1800点(UTC)
风速10节,风向西南,有时为20节阵风
能見度: 10公里
多云层高于8000英尺

TAF: CYTZ 031938Z 0320/0420 29010G20KT P6SM SCT050 TEMPO 0320/0324 P6SM -SHRA BKN050 FM040000 29010KT P6SM FEW080 BECMG 0407/0409 VRB03KT BECMG 0410/0412 22007KT FM041800 22010G20KT P6SM BKN080 RMK FCST BASED ON AUTO OBS. NXT FCST BY 040200Z

超过4000个机场的气象观测和天气预报(METAR&TAF报告)。

可查询的气象台以黄色和红色小点在地图上表示。

将鼠标移到小点上方,可查看气象台名称。

然后点击查看天气观测和预报。

如需切换地图:点击带黑十字的绿色按钮放大地图;点击带横线的绿色按钮缩小地图;或者点击绿色箭头查看邻近地区的地图。


METAR-TAF: